createdAt,value
2018-06-18T00:03:54.529Z,74.10
2018-06-18T00:08:57.737Z,73.70
2018-06-18T00:14:00.880Z,73.90
2018-06-18T00:19:04.031Z,73.80
2018-06-18T00:24:07.158Z,74.10
2018-06-18T00:29:10.281Z,73.70
2018-06-18T00:34:13.418Z,73.10
2018-06-18T00:39:16.597Z,73.00
2018-06-18T00:44:19.734Z,73.10
2018-06-18T00:49:22.887Z,73.20
2018-06-18T00:54:26.057Z,73.00
2018-06-18T00:59:29.206Z,73.50
2018-06-18T01:04:32.375Z,72.50
2018-06-18T01:09:35.512Z,72.30
2018-06-18T01:14:38.690Z,72.20
2018-06-18T01:19:41.878Z,72.60
2018-06-18T01:24:53.213Z,72.50
2018-06-18T01:29:56.767Z,72.50
2018-06-18T01:34:59.971Z,72.50
2018-06-18T01:40:03.157Z,71.90
2018-06-18T01:45:06.367Z,71.70
2018-06-18T01:50:09.536Z,71.80
2018-06-18T01:55:12.806Z,71.70
2018-06-18T02:00:15.986Z,71.40
2018-06-18T02:05:19.273Z,71.40
2018-06-18T02:10:22.517Z,70.90
2018-06-18T02:15:25.678Z,70.90
2018-06-18T02:20:28.910Z,71.00
2018-06-18T02:25:32.088Z,71.00
2018-06-18T02:30:40.433Z,70.80
2018-06-18T02:35:49.074Z,70.80
2018-06-18T02:45:55.188Z,71.20
2018-06-18T02:50:58.377Z,71.30
2018-06-18T02:56:01.714Z,71.00
2018-06-18T03:01:04.872Z,70.90
2018-06-18T03:06:08.050Z,71.20
2018-06-18T03:11:11.223Z,71.20
2018-06-18T03:16:15.190Z,71.40
2018-06-18T03:21:23.830Z,71.20
2018-06-18T03:26:32.214Z,71.60
2018-06-18T03:31:35.415Z,71.70
2018-06-18T03:36:38.940Z,71.50
2018-06-18T03:41:45.426Z,72.40
2018-06-18T03:46:48.605Z,72.30
2018-06-18T03:51:52.831Z,72.40
2018-06-18T03:56:56.017Z,72.60
2018-06-18T04:02:14.977Z,73.40
2018-06-18T04:07:24.666Z,73.40
2018-06-18T04:12:27.786Z,73.90
2018-06-18T04:17:30.930Z,74.80
2018-06-18T04:22:34.053Z,75.30
2018-06-18T04:27:37.191Z,76.00
2018-06-18T04:32:40.350Z,76.20
2018-06-18T04:37:43.632Z,76.20
2018-06-18T04:42:52.103Z,76.50
2018-06-18T04:48:00.703Z,76.60
2018-06-18T04:53:03.907Z,76.90
2018-06-18T04:58:07.145Z,77.10
2018-06-18T05:03:10.321Z,77.40
2018-06-18T05:08:30.789Z,77.10
2018-06-18T05:13:33.993Z,77.40
2018-06-18T05:24:04.297Z,77.90
2018-06-18T05:34:10.868Z,78.00
2018-06-18T05:39:14.082Z,77.70
2018-06-18T05:44:17.258Z,77.90
2018-06-18T05:49:20.395Z,77.70
2018-06-18T05:54:23.570Z,77.90
2018-06-18T05:59:26.765Z,77.50
2018-06-18T06:04:29.954Z,78.00
2018-06-18T06:09:33.147Z,77.00
2018-06-18T06:14:36.395Z,76.30
2018-06-18T06:19:39.590Z,76.00
2018-06-18T06:24:42.790Z,76.00
2018-06-18T06:29:46.039Z,76.50
2018-06-18T06:34:55.429Z,76.20
2018-06-18T06:39:58.671Z,75.70
2018-06-18T06:45:01.881Z,74.70
2018-06-18T06:50:05.085Z,75.20
2018-06-18T06:55:08.321Z,75.60
2018-06-18T07:00:11.526Z,74.10
2018-06-18T07:05:14.726Z,73.90
2018-06-18T07:10:18.027Z,73.80
2018-06-18T07:15:21.259Z,74.10
2018-06-18T07:20:24.447Z,73.90
2018-06-18T07:25:27.634Z,73.90
2018-06-18T07:30:31.046Z,73.80
2018-06-18T07:35:34.090Z,73.40
2018-06-18T07:40:37.354Z,72.80
2018-06-18T07:45:40.665Z,74.00
2018-06-18T07:50:43.846Z,74.20
2018-06-18T07:55:47.067Z,73.90
2018-06-18T08:00:50.221Z,74.50
2018-06-18T08:05:53.551Z,76.30
2018-06-18T08:10:57.314Z,74.90
2018-06-18T08:16:00.482Z,74.90
2018-06-18T08:21:03.716Z,75.50
2018-06-18T08:26:06.890Z,73.90
2018-06-18T08:31:10.290Z,75.00
2018-06-18T08:36:13.506Z,74.10
2018-06-18T08:41:16.797Z,74.30
2018-06-18T08:46:19.929Z,73.40
2018-06-18T08:51:28.422Z,73.00
2018-06-18T08:56:37.223Z,71.10
2018-06-18T09:01:42.819Z,72.90
2018-06-18T09:06:46.795Z,73.50
2018-06-18T09:11:49.951Z,71.90
2018-06-18T09:21:56.207Z,71.30
2018-06-18T09:27:04.854Z,71.40
2018-06-18T09:32:12.936Z,70.60
2018-06-18T09:37:15.946Z,68.80
2018-06-18T09:42:19.101Z,68.10
2018-06-18T09:47:23.247Z,68.20
2018-06-18T09:52:31.845Z,68.10
2018-06-18T09:57:42.405Z,69.80
2018-06-18T10:02:45.674Z,70.40
2018-06-18T10:07:49.169Z,70.10
2018-06-18T10:12:52.442Z,69.80
2018-06-18T10:17:56.083Z,69.30
2018-06-18T10:22:59.262Z,70.00
2018-06-18T10:28:02.455Z,68.70
2018-06-18T10:33:10.989Z,69.60
2018-06-18T10:38:19.706Z,69.00
2018-06-18T10:43:28.810Z,71.00
2018-06-18T10:48:32.007Z,69.20
2018-06-18T10:53:35.166Z,68.30
2018-06-18T10:58:38.526Z,67.90
2018-06-18T11:03:41.668Z,68.80
2018-06-18T11:08:44.806Z,69.10
2018-06-18T11:13:48.010Z,69.10
2018-06-18T11:18:56.710Z,69.70
2018-06-18T11:24:05.330Z,69.30
2018-06-18T11:29:08.761Z,68.90
2018-06-18T11:34:12.015Z,68.60
2018-06-18T11:39:16.052Z,68.00
2018-06-18T11:44:19.199Z,67.50
2018-06-18T11:49:22.366Z,68.30
2018-06-18T11:54:25.555Z,66.70
2018-06-18T12:00:37.925Z,67.20
2018-06-18T12:05:46.384Z,69.00
2018-06-18T12:10:50.561Z,68.60
2018-06-18T12:15:53.863Z,68.50
2018-06-18T12:20:57.122Z,68.30
2018-06-18T12:26:00.275Z,68.80
2018-06-18T12:31:03.727Z,68.90
2018-06-18T12:36:09.562Z,68.90
2018-06-18T12:41:13.313Z,70.00
2018-06-18T12:46:21.967Z,69.30
2018-06-18T12:56:39.139Z,71.30
2018-06-18T13:01:47.677Z,72.50
2018-06-18T13:07:12.135Z,73.70
2018-06-18T13:12:15.458Z,75.70
2018-06-18T13:17:18.677Z,80.00
2018-06-18T13:22:21.914Z,81.90
2018-06-18T13:27:31.473Z,82.50
2018-06-18T13:32:36.954Z,87.60
2018-06-18T13:38:45.026Z,91.40
2018-06-18T13:43:55.543Z,92.40
2018-06-18T13:48:58.721Z,92.20
2018-06-18T13:54:01.939Z,93.00
2018-06-18T13:59:06.203Z,92.50
2018-06-18T14:04:09.321Z,90.90
2018-06-18T14:09:14.517Z,90.60
2018-06-18T14:14:17.831Z,90.60
2018-06-18T14:19:26.608Z,90.70
2018-06-18T14:24:29.869Z,91.80
2018-06-18T14:29:38.576Z,92.90
2018-06-18T14:34:47.089Z,94.30
2018-06-18T14:39:57.670Z,94.20
2018-06-18T14:45:01.064Z,94.10
2018-06-18T14:50:04.250Z,93.50
2018-06-18T14:55:08.917Z,93.80
2018-06-18T15:00:17.665Z,92.40
2018-06-18T15:05:21.098Z,91.50
2018-06-18T15:10:28.555Z,91.90
2018-06-18T15:15:37.019Z,91.60
2018-06-18T15:20:40.841Z,91.60
2018-06-18T15:25:46.380Z,90.60
2018-06-18T15:30:50.206Z,91.10
2018-06-18T15:35:54.487Z,91.10
2018-06-18T15:40:57.605Z,91.10
2018-06-18T15:51:03.711Z,89.50
2018-06-18T15:56:06.966Z,88.10
2018-06-18T16:01:10.420Z,87.90
2018-06-18T16:06:13.764Z,88.10
2018-06-18T16:11:17.732Z,88.70
2018-06-18T16:16:21.042Z,88.10
2018-06-18T16:21:24.314Z,89.10
2018-06-18T16:26:27.472Z,86.80
2018-06-18T16:31:30.666Z,86.70
2018-06-18T16:36:35.631Z,86.30
2018-06-18T16:41:38.816Z,85.50
2018-06-18T16:46:42.050Z,86.50
2018-06-18T16:51:45.292Z,84.80
2018-06-18T16:56:48.469Z,84.40
2018-06-18T17:01:51.618Z,85.50
2018-06-18T17:06:54.797Z,86.20
2018-06-18T17:11:57.970Z,86.70
2018-06-18T17:17:01.134Z,85.90
2018-06-18T17:22:04.290Z,86.20
2018-06-18T17:27:07.470Z,86.80
2018-06-18T17:32:10.662Z,85.70
2018-06-18T17:37:13.862Z,86.20
2018-06-18T17:42:17.278Z,86.70
2018-06-18T17:47:20.451Z,86.20
2018-06-18T17:52:23.666Z,85.30
2018-06-18T17:57:27.961Z,87.10
2018-06-18T18:02:31.116Z,84.90
2018-06-18T18:07:34.305Z,85.80
2018-06-18T18:12:37.610Z,86.20
2018-06-18T18:17:40.758Z,86.10
2018-06-18T18:22:44.439Z,86.40
2018-06-18T18:27:47.629Z,85.20
2018-06-18T18:32:50.946Z,84.10
2018-06-18T18:37:54.151Z,84.70
2018-06-18T18:42:57.277Z,83.70
2018-06-18T18:48:00.494Z,83.90
2018-06-18T18:53:03.653Z,84.50
2018-06-18T18:58:19.552Z,84.30
2018-06-18T19:03:24.502Z,84.80
2018-06-18T19:08:31.783Z,84.10
2018-06-18T19:13:36.327Z,84.10
2018-06-18T19:18:42.202Z,83.90
2018-06-18T19:23:45.394Z,82.90
2018-06-18T19:28:48.645Z,82.80
2018-06-18T19:34:03.174Z,82.90
2018-06-18T19:39:09.085Z,83.30
2018-06-18T19:44:12.337Z,83.70
2018-06-18T19:49:15.493Z,83.80
2018-06-18T19:54:22.303Z,84.00
2018-06-18T19:59:25.523Z,83.90
2018-06-18T20:04:28.786Z,84.20
2018-06-18T20:09:31.974Z,84.30
2018-06-18T20:14:35.120Z,85.10
2018-06-18T20:19:38.279Z,85.60
2018-06-18T20:24:42.779Z,85.90
2018-06-18T20:29:46.192Z,85.50
2018-06-18T20:34:50.492Z,85.30
2018-06-18T20:39:53.657Z,83.70
2018-06-18T20:44:56.820Z,82.80
2018-06-18T20:49:59.973Z,83.00
2018-06-18T20:55:03.116Z,84.10
2018-06-18T21:00:06.710Z,83.60
2018-06-18T21:05:09.925Z,83.80
2018-06-18T21:10:13.080Z,84.20
2018-06-18T21:15:16.283Z,83.40
2018-06-18T21:20:19.520Z,83.70
2018-06-18T21:25:22.774Z,82.30
2018-06-18T21:30:25.971Z,82.50
2018-06-18T21:35:29.120Z,82.80
2018-06-18T21:40:32.330Z,82.80
2018-06-18T21:45:35.845Z,82.70
2018-06-18T21:50:39.112Z,82.70
2018-06-18T21:55:42.270Z,82.40
2018-06-18T22:00:49.541Z,83.20
2018-06-18T22:05:52.802Z,82.50
2018-06-18T22:10:56.172Z,83.80
2018-06-18T22:15:59.217Z,84.00
2018-06-18T22:21:02.424Z,83.00
2018-06-18T22:26:05.731Z,82.20
2018-06-18T22:31:08.950Z,82.50
2018-06-18T22:36:13.121Z,82.50
2018-06-18T22:41:16.266Z,81.90
2018-06-18T22:46:20.414Z,82.20
2018-06-18T22:51:23.594Z,82.60
2018-06-18T22:56:27.398Z,83.20
2018-06-18T23:01:30.784Z,82.50
2018-06-18T23:06:33.938Z,82.40
2018-06-18T23:11:37.354Z,82.60
2018-06-18T23:16:40.530Z,82.60
2018-06-18T23:21:43.695Z,83.50
2018-06-18T23:26:46.857Z,83.20
2018-06-18T23:31:50.027Z,83.30
2018-06-18T23:36:53.283Z,82.60
2018-06-18T23:41:57.885Z,82.80
2018-06-18T23:47:02.070Z,83.10
2018-06-18T23:52:05.254Z,82.00
2018-06-18T23:57:11.259Z,81.10
